sensor_id;sensor_type;location;lat;lon;timestamp;P1;durP1;ratioP1;P2;durP2;ratioP2
19595;SDS011;9945;46.010;8.946;2023-02-15T00:02:00;8.13;;;5.90;;
19595;SDS011;9945;46.010;8.946;2023-02-15T00:04:27;7.17;;;6.20;;
19595;SDS011;9945;46.010;8.946;2023-02-15T00:07:26;7.93;;;6.33;;
19595;SDS011;9945;46.010;8.946;2023-02-15T00:09:53;6.83;;;6.10;;
19595;SDS011;9945;46.010;8.946;2023-02-15T00:12:20;6.70;;;5.20;;
19595;SDS011;9945;46.010;8.946;2023-02-15T00:14:47;7.87;;;6.50;;
19595;SDS011;9945;46.010;8.946;2023-02-15T00:17:14;7.57;;;5.57;;
19595;SDS011;9945;46.010;8.946;2023-02-15T00:19:41;5.93;;;5.37;;
19595;SDS011;9945;46.010;8.946;2023-02-15T00:22:08;6.27;;;5.20;;
19595;SDS011;9945;46.010;8.946;2023-02-15T00:24:36;6.10;;;5.50;;
19595;SDS011;9945;46.010;8.946;2023-02-15T00:27:04;6.83;;;5.13;;
19595;SDS011;9945;46.010;8.946;2023-02-15T00:29:30;6.90;;;5.63;;
19595;SDS011;9945;46.010;8.946;2023-02-15T00:31:57;7.87;;;5.50;;
19595;SDS011;9945;46.010;8.946;2023-02-15T00:34:26;5.77;;;5.17;;
19595;SDS011;9945;46.010;8.946;2023-02-15T00:36:53;6.07;;;5.40;;
19595;SDS011;9945;46.010;8.946;2023-02-15T00:39:20;6.00;;;5.30;;
19595;SDS011;9945;46.010;8.946;2023-02-15T00:41:50;8.33;;;5.67;;
19595;SDS011;9945;46.010;8.946;2023-02-15T00:44:17;6.00;;;5.40;;
19595;SDS011;9945;46.010;8.946;2023-02-15T00:46:44;5.60;;;5.03;;
19595;SDS011;9945;46.010;8.946;2023-02-15T00:49:10;6.53;;;5.60;;
19595;SDS011;9945;46.010;8.946;2023-02-15T00:51:37;5.93;;;5.33;;
19595;SDS011;9945;46.010;8.946;2023-02-15T00:54:05;5.83;;;5.27;;
19595;SDS011;9945;46.010;8.946;2023-02-15T00:56:32;7.00;;;5.50;;
19595;SDS011;9945;46.010;8.946;2023-02-15T00:59:01;5.97;;;5.10;;
19595;SDS011;9945;46.010;8.946;2023-02-15T01:01:28;5.73;;;5.23;;
19595;SDS011;9945;46.010;8.946;2023-02-15T01:03:55;8.23;;;5.30;;
19595;SDS011;9945;46.010;8.946;2023-02-15T01:06:22;5.90;;;5.30;;
19595;SDS011;9945;46.010;8.946;2023-02-15T01:08:48;6.07;;;5.40;;
19595;SDS011;9945;46.010;8.946;2023-02-15T01:11:16;6.00;;;5.13;;
19595;SDS011;9945;46.010;8.946;2023-02-15T01:13:47;4.57;;;4.23;;
19595;SDS011;9945;46.010;8.946;2023-02-15T01:16:15;4.30;;;3.90;;
19595;SDS011;9945;46.010;8.946;2023-02-15T01:18:43;4.40;;;3.70;;
19595;SDS011;9945;46.010;8.946;2023-02-15T01:21:12;4.50;;;4.10;;
19595;SDS011;9945;46.010;8.946;2023-02-15T01:23:40;4.47;;;4.07;;
19595;SDS011;9945;46.010;8.946;2023-02-15T01:26:07;5.13;;;4.33;;
19595;SDS011;9945;46.010;8.946;2023-02-15T01:28:35;4.33;;;3.93;;
19595;SDS011;9945;46.010;8.946;2023-02-15T01:31:05;4.77;;;4.37;;
19595;SDS011;9945;46.010;8.946;2023-02-15T01:33:34;4.73;;;4.33;;
19595;SDS011;9945;46.010;8.946;2023-02-15T01:36:02;4.87;;;4.27;;
19595;SDS011;9945;46.010;8.946;2023-02-15T01:38:29;4.87;;;4.47;;
19595;SDS011;9945;46.010;8.946;2023-02-15T01:40:56;4.77;;;4.17;;
19595;SDS011;9945;46.010;8.946;2023-02-15T01:43:44;3.77;;;3.40;;
19595;SDS011;9945;46.010;8.946;2023-02-15T01:46:14;4.50;;;3.77;;
19595;SDS011;9945;46.010;8.946;2023-02-15T01:48:46;6.10;;;4.10;;
19595;SDS011;9945;46.010;8.946;2023-02-15T01:51:16;4.43;;;4.13;;
19595;SDS011;9945;46.010;8.946;2023-02-15T01:53:48;3.77;;;3.47;;
19595;SDS011;9945;46.010;8.946;2023-02-15T01:56:19;4.13;;;3.60;;
19595;SDS011;9945;46.010;8.946;2023-02-15T01:58:48;4.10;;;3.70;;
19595;SDS011;9945;46.010;8.946;2023-02-15T02:01:17;3.90;;;3.43;;
19595;SDS011;9945;46.010;8.946;2023-02-15T02:03:50;3.70;;;3.40;;
19595;SDS011;9945;46.010;8.946;2023-02-15T02:06:26;4.13;;;3.50;;
19595;SDS011;9945;46.010;8.946;2023-02-15T02:08:53;4.17;;;3.70;;
19595;SDS011;9945;46.010;8.946;2023-02-15T02:11:21;4.53;;;3.80;;
19595;SDS011;9945;46.010;8.946;2023-02-15T02:13:48;3.80;;;3.50;;
19595;SDS011;9945;46.010;8.946;2023-02-15T02:16:19;4.63;;;4.07;;
19595;SDS011;9945;46.010;8.946;2023-02-15T02:18:57;5.40;;;3.53;;
19595;SDS011;9945;46.010;8.946;2023-02-15T02:21:47;3.43;;;3.13;;
19595;SDS011;9945;46.010;8.946;2023-02-15T02:24:35;3.77;;;3.33;;
19595;SDS011;9945;46.010;8.946;2023-02-15T02:27:23;3.73;;;3.43;;
19595;SDS011;9945;46.010;8.946;2023-02-15T02:30:08;3.73;;;3.40;;
19595;SDS011;9945;46.010;8.946;2023-02-15T02:35:44;4.30;;;3.90;;
19595;SDS011;9945;46.010;8.946;2023-02-15T02:38:21;4.30;;;3.70;;
19595;SDS011;9945;46.010;8.946;2023-02-15T02:40:55;4.87;;;3.50;;
19595;SDS011;9945;46.010;8.946;2023-02-15T02:43:33;4.03;;;3.63;;
19595;SDS011;9945;46.010;8.946;2023-02-15T02:46:05;4.43;;;3.60;;
19595;SDS011;9945;46.010;8.946;2023-02-15T02:48:37;4.33;;;3.23;;
19595;SDS011;9945;46.010;8.946;2023-02-15T02:51:05;4.00;;;3.60;;
19595;SDS011;9945;46.010;8.946;2023-02-15T02:53:32;3.77;;;3.40;;
19595;SDS011;9945;46.010;8.946;2023-02-15T02:56:03;4.17;;;3.77;;
19595;SDS011;9945;46.010;8.946;2023-02-15T02:58:37;3.93;;;3.63;;
19595;SDS011;9945;46.010;8.946;2023-02-15T03:01:11;4.00;;;3.70;;
19595;SDS011;9945;46.010;8.946;2023-02-15T03:03:44;3.87;;;3.57;;
19595;SDS011;9945;46.010;8.946;2023-02-15T03:06:15;4.03;;;3.67;;
19595;SDS011;9945;46.010;8.946;2023-02-15T03:08:46;3.50;;;3.20;;
19595;SDS011;9945;46.010;8.946;2023-02-15T03:11:15;3.80;;;3.50;;
19595;SDS011;9945;46.010;8.946;2023-02-15T03:13:42;4.80;;;3.90;;
19595;SDS011;9945;46.010;8.946;2023-02-15T03:16:11;3.33;;;3.07;;
19595;SDS011;9945;46.010;8.946;2023-02-15T03:18:57;3.40;;;3.10;;
19595;SDS011;9945;46.010;8.946;2023-02-15T03:21:30;3.80;;;3.40;;
19595;SDS011;9945;46.010;8.946;2023-02-15T03:24:02;3.10;;;2.80;;
19595;SDS011;9945;46.010;8.946;2023-02-15T03:26:33;2.70;;;2.50;;
19595;SDS011;9945;46.010;8.946;2023-02-15T03:29:00;3.47;;;3.20;;
19595;SDS011;9945;46.010;8.946;2023-02-15T03:31:31;3.33;;;3.03;;
19595;SDS011;9945;46.010;8.946;2023-02-15T03:34:04;3.03;;;2.73;;
19595;SDS011;9945;46.010;8.946;2023-02-15T03:36:36;3.27;;;2.80;;
19595;SDS011;9945;46.010;8.946;2023-02-15T03:39:11;4.93;;;3.67;;
19595;SDS011;9945;46.010;8.946;2023-02-15T03:41:45;6.73;;;4.37;;
19595;SDS011;9945;46.010;8.946;2023-02-15T03:44:19;4.60;;;3.77;;
19595;SDS011;9945;46.010;8.946;2023-02-15T03:46:55;3.93;;;3.53;;
19595;SDS011;9945;46.010;8.946;2023-02-15T03:49:29;5.33;;;3.10;;
19595;SDS011;9945;46.010;8.946;2023-02-15T03:52:02;4.47;;;3.27;;
19595;SDS011;9945;46.010;8.946;2023-02-15T03:54:32;3.27;;;2.97;;
19595;SDS011;9945;46.010;8.946;2023-02-15T03:57:12;3.17;;;2.87;;
19595;SDS011;9945;46.010;8.946;2023-02-15T03:59:56;3.53;;;2.90;;
19595;SDS011;9945;46.010;8.946;2023-02-15T04:02:42;3.47;;;2.90;;
19595;SDS011;9945;46.010;8.946;2023-02-15T04:05:20;3.53;;;3.23;;
19595;SDS011;9945;46.010;8.946;2023-02-15T04:07:47;3.07;;;2.87;;
19595;SDS011;9945;46.010;8.946;2023-02-15T04:10:14;4.60;;;3.30;;
19595;SDS011;9945;46.010;8.946;2023-02-15T04:12:58;3.80;;;3.00;;
19595;SDS011;9945;46.010;8.946;2023-02-15T04:15:25;3.47;;;3.17;;
19595;SDS011;9945;46.010;8.946;2023-02-15T04:18:12;3.80;;;3.50;;
19595;SDS011;9945;46.010;8.946;2023-02-15T04:20:40;3.10;;;2.80;;
19595;SDS011;9945;46.010;8.946;2023-02-15T04:23:27;3.30;;;3.00;;
19595;SDS011;9945;46.010;8.946;2023-02-15T04:26:11;3.43;;;3.13;;
19595;SDS011;9945;46.010;8.946;2023-02-15T04:28:38;5.33;;;3.30;;
19595;SDS011;9945;46.010;8.946;2023-02-15T04:31:05;4.43;;;3.50;;
19595;SDS011;9945;46.010;8.946;2023-02-15T04:33:32;3.70;;;3.33;;
19595;SDS011;9945;46.010;8.946;2023-02-15T04:36:02;3.37;;;3.07;;
19595;SDS011;9945;46.010;8.946;2023-02-15T04:38:29;3.33;;;2.90;;
19595;SDS011;9945;46.010;8.946;2023-02-15T04:40:56;4.50;;;3.67;;
19595;SDS011;9945;46.010;8.946;2023-02-15T04:43:23;3.90;;;3.30;;
19595;SDS011;9945;46.010;8.946;2023-02-15T04:45:50;3.80;;;3.40;;
19595;SDS011;9945;46.010;8.946;2023-02-15T04:48:17;3.27;;;3.00;;
19595;SDS011;9945;46.010;8.946;2023-02-15T04:50:44;3.43;;;2.97;;
19595;SDS011;9945;46.010;8.946;2023-02-15T04:53:12;2.63;;;2.43;;
19595;SDS011;9945;46.010;8.946;2023-02-15T04:55:41;3.17;;;2.97;;
19595;SDS011;9945;46.010;8.946;2023-02-15T04:58:08;2.80;;;2.50;;
19595;SDS011;9945;46.010;8.946;2023-02-15T05:00:35;2.97;;;2.77;;
19595;SDS011;9945;46.010;8.946;2023-02-15T05:03:02;3.40;;;2.77;;
19595;SDS011;9945;46.010;8.946;2023-02-15T05:05:29;2.87;;;2.60;;
19595;SDS011;9945;46.010;8.946;2023-02-15T05:07:56;4.57;;;3.10;;
19595;SDS011;9945;46.010;8.946;2023-02-15T05:10:24;2.50;;;2.30;;
19595;SDS011;9945;46.010;8.946;2023-02-15T05:12:51;2.70;;;2.50;;
19595;SDS011;9945;46.010;8.946;2023-02-15T05:15:18;4.13;;;2.63;;
19595;SDS011;9945;46.010;8.946;2023-02-15T05:17:45;2.37;;;2.17;;
19595;SDS011;9945;46.010;8.946;2023-02-15T05:20:12;2.43;;;2.23;;
19595;SDS011;9945;46.010;8.946;2023-02-15T05:22:39;2.27;;;2.07;;
19595;SDS011;9945;46.010;8.946;2023-02-15T05:25:07;2.80;;;2.60;;
19595;SDS011;9945;46.010;8.946;2023-02-15T05:27:53;2.50;;;2.30;;
19595;SDS011;9945;46.010;8.946;2023-02-15T05:30:37;2.90;;;2.70;;
19595;SDS011;9945;46.010;8.946;2023-02-15T05:33:05;2.80;;;2.60;;
19595;SDS011;9945;46.010;8.946;2023-02-15T05:35:32;3.30;;;2.40;;
19595;SDS011;9945;46.010;8.946;2023-02-15T05:37:59;3.00;;;2.80;;
19595;SDS011;9945;46.010;8.946;2023-02-15T05:40:26;3.10;;;2.73;;
19595;SDS011;9945;46.010;8.946;2023-02-15T05:42:54;3.23;;;2.93;;
19595;SDS011;9945;46.010;8.946;2023-02-15T05:45:22;4.13;;;2.90;;
19595;SDS011;9945;46.010;8.946;2023-02-15T05:47:49;4.50;;;3.20;;
19595;SDS011;9945;46.010;8.946;2023-02-15T05:50:16;5.40;;;3.00;;
19595;SDS011;9945;46.010;8.946;2023-02-15T05:52:43;3.90;;;2.90;;
19595;SDS011;9945;46.010;8.946;2023-02-15T05:55:10;8.17;;;2.67;;
19595;SDS011;9945;46.010;8.946;2023-02-15T05:57:37;5.63;;;2.93;;
19595;SDS011;9945;46.010;8.946;2023-02-15T06:00:06;2.63;;;2.43;;
19595;SDS011;9945;46.010;8.946;2023-02-15T06:02:35;2.67;;;2.40;;
19595;SDS011;9945;46.010;8.946;2023-02-15T06:05:05;2.43;;;2.23;;
19595;SDS011;9945;46.010;8.946;2023-02-15T06:07:33;2.50;;;2.30;;
19595;SDS011;9945;46.010;8.946;2023-02-15T06:10:00;3.60;;;2.53;;
19595;SDS011;9945;46.010;8.946;2023-02-15T06:12:27;4.80;;;3.20;;
19595;SDS011;9945;46.010;8.946;2023-02-15T06:14:54;3.73;;;3.27;;
19595;SDS011;9945;46.010;8.946;2023-02-15T06:17:22;3.87;;;3.40;;
19595;SDS011;9945;46.010;8.946;2023-02-15T06:19:49;6.73;;;2.80;;
19595;SDS011;9945;46.010;8.946;2023-02-15T06:22:16;3.40;;;3.10;;
19595;SDS011;9945;46.010;8.946;2023-02-15T06:24:43;3.23;;;2.97;;
19595;SDS011;9945;46.010;8.946;2023-02-15T06:27:10;3.37;;;2.77;;
19595;SDS011;9945;46.010;8.946;2023-02-15T06:29:37;3.70;;;2.73;;
19595;SDS011;9945;46.010;8.946;2023-02-15T06:32:04;6.00;;;2.97;;
19595;SDS011;9945;46.010;8.946;2023-02-15T06:34:33;4.97;;;2.70;;
19595;SDS011;9945;46.010;8.946;2023-02-15T06:36:59;5.50;;;2.60;;
19595;SDS011;9945;46.010;8.946;2023-02-15T06:39:26;3.50;;;2.43;;
19595;SDS011;9945;46.010;8.946;2023-02-15T06:41:53;2.67;;;2.47;;
19595;SDS011;9945;46.010;8.946;2023-02-15T06:44:20;4.00;;;2.50;;
19595;SDS011;9945;46.010;8.946;2023-02-15T06:46:47;4.90;;;2.80;;
19595;SDS011;9945;46.010;8.946;2023-02-15T06:49:14;3.13;;;2.33;;
19595;SDS011;9945;46.010;8.946;2023-02-15T06:51:42;5.23;;;2.63;;
19595;SDS011;9945;46.010;8.946;2023-02-15T06:54:09;2.70;;;2.50;;
19595;SDS011;9945;46.010;8.946;2023-02-15T06:56:36;3.10;;;2.50;;
19595;SDS011;9945;46.010;8.946;2023-02-15T06:59:03;4.87;;;2.90;;
19595;SDS011;9945;46.010;8.946;2023-02-15T07:01:30;3.53;;;2.60;;
19595;SDS011;9945;46.010;8.946;2023-02-15T07:03:57;2.97;;;2.60;;
19595;SDS011;9945;46.010;8.946;2023-02-15T07:06:24;3.27;;;2.90;;
19595;SDS011;9945;46.010;8.946;2023-02-15T07:08:52;3.77;;;2.53;;
19595;SDS011;9945;46.010;8.946;2023-02-15T07:11:19;4.80;;;2.60;;
19595;SDS011;9945;46.010;8.946;2023-02-15T07:14:03;4.73;;;2.73;;
19595;SDS011;9945;46.010;8.946;2023-02-15T07:16:30;4.10;;;2.53;;
19595;SDS011;9945;46.010;8.946;2023-02-15T07:18:58;6.17;;;2.37;;
19595;SDS011;9945;46.010;8.946;2023-02-15T07:21:24;2.73;;;2.53;;
19595;SDS011;9945;46.010;8.946;2023-02-15T07:23:55;5.27;;;3.30;;
19595;SDS011;9945;46.010;8.946;2023-02-15T07:26:23;5.23;;;3.60;;
19595;SDS011;9945;46.010;8.946;2023-02-15T07:28:50;4.00;;;3.10;;
19595;SDS011;9945;46.010;8.946;2023-02-15T07:31:17;9.40;;;3.43;;
19595;SDS011;9945;46.010;8.946;2023-02-15T07:33:44;4.37;;;3.30;;
19595;SDS011;9945;46.010;8.946;2023-02-15T07:36:11;4.83;;;3.37;;
19595;SDS011;9945;46.010;8.946;2023-02-15T07:38:39;3.60;;;3.10;;
19595;SDS011;9945;46.010;8.946;2023-02-15T07:41:09;3.60;;;3.20;;
19595;SDS011;9945;46.010;8.946;2023-02-15T07:43:38;11.47;;;4.03;;
19595;SDS011;9945;46.010;8.946;2023-02-15T07:46:07;9.40;;;4.27;;
19595;SDS011;9945;46.010;8.946;2023-02-15T07:48:36;9.43;;;4.60;;
19595;SDS011;9945;46.010;8.946;2023-02-15T07:51:04;9.27;;;3.73;;
19595;SDS011;9945;46.010;8.946;2023-02-15T07:53:32;6.97;;;4.03;;
19595;SDS011;9945;46.010;8.946;2023-02-15T07:56:00;4.80;;;4.30;;
19595;SDS011;9945;46.010;8.946;2023-02-15T07:58:29;7.10;;;4.00;;
19595;SDS011;9945;46.010;8.946;2023-02-15T08:01:10;7.90;;;3.93;;
19595;SDS011;9945;46.010;8.946;2023-02-15T08:03:37;7.97;;;4.10;;
19595;SDS011;9945;46.010;8.946;2023-02-15T08:06:04;10.83;;;4.60;;
19595;SDS011;9945;46.010;8.946;2023-02-15T08:08:32;13.33;;;4.30;;
19595;SDS011;9945;46.010;8.946;2023-02-15T08:11:01;6.83;;;3.90;;
19595;SDS011;9945;46.010;8.946;2023-02-15T08:13:48;13.83;;;3.93;;
19595;SDS011;9945;46.010;8.946;2023-02-15T08:16:25;8.50;;;4.40;;
19595;SDS011;9945;46.010;8.946;2023-02-15T08:18:54;11.60;;;4.90;;
19595;SDS011;9945;46.010;8.946;2023-02-15T08:21:22;16.60;;;4.50;;
19595;SDS011;9945;46.010;8.946;2023-02-15T08:23:50;9.20;;;4.40;;
19595;SDS011;9945;46.010;8.946;2023-02-15T08:26:17;13.47;;;4.50;;
19595;SDS011;9945;46.010;8.946;2023-02-15T08:28:48;8.93;;;4.70;;
19595;SDS011;9945;46.010;8.946;2023-02-15T08:31:16;5.50;;;5.00;;
19595;SDS011;9945;46.010;8.946;2023-02-15T08:33:43;10.70;;;5.30;;
19595;SDS011;9945;46.010;8.946;2023-02-15T08:36:13;12.30;;;5.37;;
19595;SDS011;9945;46.010;8.946;2023-02-15T08:38:41;11.40;;;5.47;;
19595;SDS011;9945;46.010;8.946;2023-02-15T08:41:13;14.20;;;5.57;;
19595;SDS011;9945;46.010;8.946;2023-02-15T08:43:41;7.35;;;4.65;;
19595;SDS011;9945;46.010;8.946;2023-02-15T08:46:10;13.60;;;5.57;;
19595;SDS011;9945;46.010;8.946;2023-02-15T08:48:37;15.48;;;6.43;;
19595;SDS011;9945;46.010;8.946;2023-02-15T08:51:06;11.00;;;5.60;;
19595;SDS011;9945;46.010;8.946;2023-02-15T08:53:36;7.90;;;5.40;;
19595;SDS011;9945;46.010;8.946;2023-02-15T08:56:03;17.35;;;6.13;;
19595;SDS011;9945;46.010;8.946;2023-02-15T08:58:31;8.70;;;5.07;;
19595;SDS011;9945;46.010;8.946;2023-02-15T09:00:58;12.25;;;5.93;;
19595;SDS011;9945;46.010;8.946;2023-02-15T09:03:28;18.35;;;5.57;;
19595;SDS011;9945;46.010;8.946;2023-02-15T09:05:58;11.68;;;5.90;;
19595;SDS011;9945;46.010;8.946;2023-02-15T09:08:26;10.13;;;5.88;;
19595;SDS011;9945;46.010;8.946;2023-02-15T09:10:53;15.38;;;6.03;;
19595;SDS011;9945;46.010;8.946;2023-02-15T09:13:21;7.07;;;5.72;;
19595;SDS011;9945;46.010;8.946;2023-02-15T09:15:48;15.90;;;6.22;;
19595;SDS011;9945;46.010;8.946;2023-02-15T09:18:15;10.48;;;6.85;;
19595;SDS011;9945;46.010;8.946;2023-02-15T09:20:44;13.55;;;6.35;;
19595;SDS011;9945;46.010;8.946;2023-02-15T09:23:11;12.85;;;7.15;;
19595;SDS011;9945;46.010;8.946;2023-02-15T09:25:39;8.90;;;6.72;;
19595;SDS011;9945;46.010;8.946;2023-02-15T09:28:07;15.00;;;6.85;;
19595;SDS011;9945;46.010;8.946;2023-02-15T09:30:35;18.20;;;7.22;;
19595;SDS011;9945;46.010;8.946;2023-02-15T09:33:01;17.92;;;8.40;;
19595;SDS011;9945;46.010;8.946;2023-02-15T09:35:28;16.63;;;7.55;;
19595;SDS011;9945;46.010;8.946;2023-02-15T09:37:57;13.32;;;8.73;;
19595;SDS011;9945;46.010;8.946;2023-02-15T09:40:23;16.67;;;8.13;;
19595;SDS011;9945;46.010;8.946;2023-02-15T09:45:55;14.05;;;7.88;;
19595;SDS011;9945;46.010;8.946;2023-02-15T09:48:40;13.00;;;7.63;;
19595;SDS011;9945;46.010;8.946;2023-02-15T09:54:15;11.75;;;8.07;;
19595;SDS011;9945;46.010;8.946;2023-02-15T09:56:54;11.65;;;7.53;;
19595;SDS011;9945;46.010;8.946;2023-02-15T09:59:26;14.57;;;7.43;;
19595;SDS011;9945;46.010;8.946;2023-02-15T10:02:02;14.95;;;7.20;;
19595;SDS011;9945;46.010;8.946;2023-02-15T10:04:49;9.27;;;6.90;;
19595;SDS011;9945;46.010;8.946;2023-02-15T10:07:34;9.98;;;6.05;;
19595;SDS011;9945;46.010;8.946;2023-02-15T10:10:20;9.15;;;6.55;;
19595;SDS011;9945;46.010;8.946;2023-02-15T10:13:07;16.80;;;7.65;;
19595;SDS011;9945;46.010;8.946;2023-02-15T10:15:46;11.55;;;6.60;;
19595;SDS011;9945;46.010;8.946;2023-02-15T10:18:33;9.85;;;6.65;;
19595;SDS011;9945;46.010;8.946;2023-02-15T10:21:11;13.20;;;6.70;;
19595;SDS011;9945;46.010;8.946;2023-02-15T10:23:49;7.13;;;6.30;;
19595;SDS011;9945;46.010;8.946;2023-02-15T10:26:30;12.30;;;5.93;;
19595;SDS011;9945;46.010;8.946;2023-02-15T10:29:07;7.43;;;5.18;;
19595;SDS011;9945;46.010;8.946;2023-02-15T10:31:43;8.13;;;5.30;;
19595;SDS011;9945;46.010;8.946;2023-02-15T10:34:16;6.60;;;5.10;;
19595;SDS011;9945;46.010;8.946;2023-02-15T10:39:47;5.70;;;5.15;;
19595;SDS011;9945;46.010;8.946;2023-02-15T10:42:23;7.07;;;5.50;;
19595;SDS011;9945;46.010;8.946;2023-02-15T10:45:07;8.13;;;4.82;;
19595;SDS011;9945;46.010;8.946;2023-02-15T10:47:49;8.30;;;5.55;;
19595;SDS011;9945;46.010;8.946;2023-02-15T10:50:30;5.82;;;5.40;;
19595;SDS011;9945;46.010;8.946;2023-02-15T10:53:13;6.45;;;5.20;;
19595;SDS011;9945;46.010;8.946;2023-02-15T10:55:55;4.70;;;4.30;;
19595;SDS011;9945;46.010;8.946;2023-02-15T10:58:31;5.00;;;4.28;;
19595;SDS011;9945;46.010;8.946;2023-02-15T11:01:11;4.55;;;4.25;;
19595;SDS011;9945;46.010;8.946;2023-02-15T11:06:46;4.43;;;4.00;;
19595;SDS011;9945;46.010;8.946;2023-02-15T11:09:17;4.35;;;4.00;;
19595;SDS011;9945;46.010;8.946;2023-02-15T11:11:47;5.07;;;4.45;;
19595;SDS011;9945;46.010;8.946;2023-02-15T11:14:23;4.53;;;4.18;;
19595;SDS011;9945;46.010;8.946;2023-02-15T11:17:02;5.15;;;4.68;;
19595;SDS011;9945;46.010;8.946;2023-02-15T11:19:33;6.65;;;5.32;;
19595;SDS011;9945;46.010;8.946;2023-02-15T11:22:04;5.53;;;5.03;;
19595;SDS011;9945;46.010;8.946;2023-02-15T11:24:34;7.53;;;5.63;;
19595;SDS011;9945;46.010;8.946;2023-02-15T11:27:12;6.57;;;4.97;;
19595;SDS011;9945;46.010;8.946;2023-02-15T11:29:48;6.45;;;4.60;;
19595;SDS011;9945;46.010;8.946;2023-02-15T11:32:21;3.90;;;3.70;;
19595;SDS011;9945;46.010;8.946;2023-02-15T11:34:51;5.32;;;3.70;;
19595;SDS011;9945;46.010;8.946;2023-02-15T11:37:23;6.35;;;3.72;;
19595;SDS011;9945;46.010;8.946;2023-02-15T11:39:54;4.82;;;3.70;;
19595;SDS011;9945;46.010;8.946;2023-02-15T11:42:23;5.60;;;4.28;;
19595;SDS011;9945;46.010;8.946;2023-02-15T11:44:56;3.97;;;3.55;;
19595;SDS011;9945;46.010;8.946;2023-02-15T11:47:26;6.57;;;4.32;;
19595;SDS011;9945;46.010;8.946;2023-02-15T11:49:53;4.63;;;3.72;;
19595;SDS011;9945;46.010;8.946;2023-02-15T11:52:20;5.63;;;4.30;;
19595;SDS011;9945;46.010;8.946;2023-02-15T11:54:48;3.97;;;3.60;;
19595;SDS011;9945;46.010;8.946;2023-02-15T11:57:17;4.38;;;4.07;;
19595;SDS011;9945;46.010;8.946;2023-02-15T11:59:50;4.90;;;4.32;;
19595;SDS011;9945;46.010;8.946;2023-02-15T12:02:23;4.70;;;4.28;;
19595;SDS011;9945;46.010;8.946;2023-02-15T12:04:52;4.13;;;3.72;;
19595;SDS011;9945;46.010;8.946;2023-02-15T12:07:23;7.97;;;4.50;;
19595;SDS011;9945;46.010;8.946;2023-02-15T12:09:55;3.85;;;3.53;;
19595;SDS011;9945;46.010;8.946;2023-02-15T12:12:32;4.53;;;3.55;;
19595;SDS011;9945;46.010;8.946;2023-02-15T12:15:01;3.33;;;2.33;;
19595;SDS011;9945;46.010;8.946;2023-02-15T12:17:31;2.90;;;2.60;;
19595;SDS011;9945;46.010;8.946;2023-02-15T12:20:00;3.25;;;2.95;;
19595;SDS011;9945;46.010;8.946;2023-02-15T12:22:30;3.30;;;3.00;;
19595;SDS011;9945;46.010;8.946;2023-02-15T12:24:59;8.82;;;2.85;;
19595;SDS011;9945;46.010;8.946;2023-02-15T12:27:29;3.25;;;2.80;;
19595;SDS011;9945;46.010;8.946;2023-02-15T12:29:58;4.00;;;3.28;;
19595;SDS011;9945;46.010;8.946;2023-02-15T12:32:33;3.28;;;2.97;;
19595;SDS011;9945;46.010;8.946;2023-02-15T12:35:06;3.75;;;3.28;;
19595;SDS011;9945;46.010;8.946;2023-02-15T12:37:38;5.85;;;3.38;;
19595;SDS011;9945;46.010;8.946;2023-02-15T12:40:19;6.82;;;3.50;;
19595;SDS011;9945;46.010;8.946;2023-02-15T12:42:48;3.58;;;3.08;;
19595;SDS011;9945;46.010;8.946;2023-02-15T12:45:23;6.93;;;3.28;;
19595;SDS011;9945;46.010;8.946;2023-02-15T12:48:14;3.90;;;3.38;;
19595;SDS011;9945;46.010;8.946;2023-02-15T12:50:43;6.05;;;3.38;;
19595;SDS011;9945;46.010;8.946;2023-02-15T12:53:15;4.03;;;3.67;;
19595;SDS011;9945;46.010;8.946;2023-02-15T12:55:49;5.30;;;3.80;;
19595;SDS011;9945;46.010;8.946;2023-02-15T12:58:19;8.98;;;4.20;;
19595;SDS011;9945;46.010;8.946;2023-02-15T13:00:50;15.07;;;11.65;;
19595;SDS011;9945;46.010;8.946;2023-02-15T13:03:30;6.13;;;3.97;;
19595;SDS011;9945;46.010;8.946;2023-02-15T13:05:57;7.97;;;4.80;;
19595;SDS011;9945;46.010;8.946;2023-02-15T13:08:27;9.43;;;4.55;;
19595;SDS011;9945;46.010;8.946;2023-02-15T13:10:57;6.47;;;4.00;;
19595;SDS011;9945;46.010;8.946;2023-02-15T13:13:26;5.10;;;3.80;;
19595;SDS011;9945;46.010;8.946;2023-02-15T13:15:58;6.82;;;4.22;;
19595;SDS011;9945;46.010;8.946;2023-02-15T13:18:29;4.28;;;3.50;;
19595;SDS011;9945;46.010;8.946;2023-02-15T13:20:59;5.55;;;3.88;;
19595;SDS011;9945;46.010;8.946;2023-02-15T13:23:32;4.53;;;4.13;;
19595;SDS011;9945;46.010;8.946;2023-02-15T13:26:03;6.20;;;3.63;;
19595;SDS011;9945;46.010;8.946;2023-02-15T13:28:37;5.13;;;3.50;;
19595;SDS011;9945;46.010;8.946;2023-02-15T13:31:13;8.73;;;4.47;;
19595;SDS011;9945;46.010;8.946;2023-02-15T13:33:42;5.50;;;3.80;;
19595;SDS011;9945;46.010;8.946;2023-02-15T13:36:14;3.95;;;3.50;;
19595;SDS011;9945;46.010;8.946;2023-02-15T13:41:39;3.53;;;3.20;;
19595;SDS011;9945;46.010;8.946;2023-02-15T13:44:21;3.85;;;3.55;;
19595;SDS011;9945;46.010;8.946;2023-02-15T13:47:05;10.43;;;3.85;;
19595;SDS011;9945;46.010;8.946;2023-02-15T13:49:46;5.95;;;3.33;;
19595;SDS011;9945;46.010;8.946;2023-02-15T13:52:27;4.07;;;3.15;;
19595;SDS011;9945;46.010;8.946;2023-02-15T13:58:01;11.07;;;3.70;;
19595;SDS011;9945;46.010;8.946;2023-02-15T14:00:41;5.13;;;3.60;;
19595;SDS011;9945;46.010;8.946;2023-02-15T14:03:20;7.10;;;3.30;;
19595;SDS011;9945;46.010;8.946;2023-02-15T14:09:24;9.13;;;3.95;;
19595;SDS011;9945;46.010;8.946;2023-02-15T14:12:08;7.35;;;3.70;;
19595;SDS011;9945;46.010;8.946;2023-02-15T14:14:55;6.18;;;3.75;;
19595;SDS011;9945;46.010;8.946;2023-02-15T14:17:40;7.80;;;4.35;;
19595;SDS011;9945;46.010;8.946;2023-02-15T14:20:19;4.93;;;3.85;;
19595;SDS011;9945;46.010;8.946;2023-02-15T14:22:50;5.40;;;4.22;;
19595;SDS011;9945;46.010;8.946;2023-02-15T14:25:27;6.10;;;3.67;;
19595;SDS011;9945;46.010;8.946;2023-02-15T14:28:01;5.13;;;4.40;;
19595;SDS011;9945;46.010;8.946;2023-02-15T14:30:32;5.63;;;4.07;;
19595;SDS011;9945;46.010;8.946;2023-02-15T14:33:04;7.68;;;4.78;;
19595;SDS011;9945;46.010;8.946;2023-02-15T14:35:34;6.05;;;5.45;;
19595;SDS011;9945;46.010;8.946;2023-02-15T14:38:04;6.22;;;4.97;;
19595;SDS011;9945;46.010;8.946;2023-02-15T14:40:40;8.00;;;5.53;;
19595;SDS011;9945;46.010;8.946;2023-02-15T14:43:32;9.10;;;4.85;;
19595;SDS011;9945;46.010;8.946;2023-02-15T14:46:09;5.25;;;4.75;;
19595;SDS011;9945;46.010;8.946;2023-02-15T14:48:45;11.93;;;5.43;;
19595;SDS011;9945;46.010;8.946;2023-02-15T14:57:23;5.70;;;4.95;;
19595;SDS011;9945;46.010;8.946;2023-02-15T14:59:57;6.22;;;5.03;;
19595;SDS011;9945;46.010;8.946;2023-02-15T15:02:29;5.93;;;4.75;;
19595;SDS011;9945;46.010;8.946;2023-02-15T15:05:07;9.70;;;5.38;;
19595;SDS011;9945;46.010;8.946;2023-02-15T15:07:37;10.32;;;4.60;;
19595;SDS011;9945;46.010;8.946;2023-02-15T15:18:57;10.23;;;5.93;;
19595;SDS011;9945;46.010;8.946;2023-02-15T15:33:40;13.13;;;6.63;;
19595;SDS011;9945;46.010;8.946;2023-02-15T15:39:35;10.85;;;5.85;;
19595;SDS011;9945;46.010;8.946;2023-02-15T15:42:31;10.25;;;6.40;;
19595;SDS011;9945;46.010;8.946;2023-02-15T15:45:20;9.48;;;7.05;;
19595;SDS011;9945;46.010;8.946;2023-02-15T15:48:05;18.00;;;6.70;;
19595;SDS011;9945;46.010;8.946;2023-02-15T15:50:47;8.73;;;6.80;;
19595;SDS011;9945;46.010;8.946;2023-02-15T15:53:19;12.18;;;6.88;;
19595;SDS011;9945;46.010;8.946;2023-02-15T15:55:49;10.45;;;6.93;;
19595;SDS011;9945;46.010;8.946;2023-02-15T15:58:21;9.30;;;7.00;;
19595;SDS011;9945;46.010;8.946;2023-02-15T16:00:51;9.18;;;6.55;;
19595;SDS011;9945;46.010;8.946;2023-02-15T16:03:22;11.43;;;7.28;;
19595;SDS011;9945;46.010;8.946;2023-02-15T16:05:50;15.23;;;7.80;;
19595;SDS011;9945;46.010;8.946;2023-02-15T16:08:25;11.93;;;6.70;;
19595;SDS011;9945;46.010;8.946;2023-02-15T16:10:53;10.35;;;7.20;;
19595;SDS011;9945;46.010;8.946;2023-02-15T16:13:21;11.00;;;7.95;;
19595;SDS011;9945;46.010;8.946;2023-02-15T16:15:49;11.95;;;7.03;;
19595;SDS011;9945;46.010;8.946;2023-02-15T16:18:20;9.85;;;7.13;;
19595;SDS011;9945;46.010;8.946;2023-02-15T16:20:50;10.80;;;6.68;;
19595;SDS011;9945;46.010;8.946;2023-02-15T16:26:18;8.60;;;6.00;;